createdAt,value
2017-08-15T00:00:59.699Z,16.54
2017-08-15T00:02:10.202Z,16.64
2017-08-15T00:03:20.646Z,16.61
2017-08-15T00:04:30.826Z,16.57
2017-08-15T00:05:41.274Z,16.54
2017-08-15T00:06:51.963Z,16.61
2017-08-15T00:08:02.590Z,16.59
2017-08-15T00:09:13.055Z,16.54
2017-08-15T00:10:23.624Z,16.54
2017-08-15T00:11:34.182Z,16.56
2017-08-15T00:12:45.175Z,16.56
2017-08-15T00:13:55.670Z,16.5
2017-08-15T00:15:06.190Z,16.54
2017-08-15T00:16:16.671Z,16.56
2017-08-15T00:17:27.127Z,16.56
2017-08-15T00:18:37.869Z,16.61
2017-08-15T00:19:48.342Z,16.64
2017-08-15T00:20:58.793Z,16.54
2017-08-15T00:22:09.248Z,16.61
2017-08-15T00:23:19.752Z,16.59
2017-08-15T00:24:30.481Z,16.62
2017-08-15T00:25:40.939Z,16.59
2017-08-15T00:26:51.889Z,16.56
2017-08-15T00:28:02.350Z,16.53
2017-08-15T00:29:12.500Z,16.54
2017-08-15T00:30:23.221Z,16.54
2017-08-15T00:31:33.910Z,16.64
2017-08-15T00:32:44.409Z,16.5
2017-08-15T00:33:54.921Z,16.56
2017-08-15T00:35:05.302Z,16.5
2017-08-15T00:36:16.104Z,16.54
2017-08-15T00:37:26.539Z,16.5
2017-08-15T00:38:36.785Z,16.49
2017-08-15T00:39:47.226Z,16.54
2017-08-15T00:40:58.666Z,16.53
2017-08-15T00:42:09.387Z,16.53
2017-08-15T00:43:19.569Z,16.57
2017-08-15T00:44:31.023Z,16.61
2017-08-15T00:45:41.882Z,16.53
2017-08-15T00:46:52.335Z,16.57
2017-08-15T00:48:03.076Z,16.51
2017-08-15T00:49:13.547Z,16.56
2017-08-15T00:50:24.229Z,16.56
2017-08-15T00:51:34.425Z,16.62
2017-08-15T00:52:44.933Z,16.53
2017-08-15T00:53:55.354Z,16.61
2017-08-15T00:55:05.810Z,16.61
2017-08-15T00:56:16.277Z,16.59
2017-08-15T00:57:26.727Z,16.49
2017-08-15T00:58:37.438Z,16.54
2017-08-15T00:59:47.893Z,16.46
2017-08-15T01:00:58.044Z,16.5
2017-08-15T01:02:08.561Z,16.43
2017-08-15T01:03:19.021Z,16.44
2017-08-15T01:04:29.511Z,16.43
2017-08-15T01:05:39.793Z,16.44
2017-08-15T01:06:50.272Z,16.43
2017-08-15T01:08:00.432Z,16.38
2017-08-15T01:09:10.890Z,16.43
2017-08-15T01:10:21.389Z,16.49
2017-08-15T01:11:32.084Z,16.43
2017-08-15T01:12:42.146Z,16.43
2017-08-15T01:13:52.830Z,16.44
2017-08-15T01:15:03.447Z,16.42
2017-08-15T01:16:13.903Z,16.44
2017-08-15T01:17:24.633Z,16.46
2017-08-15T01:18:35.102Z,16.39
2017-08-15T01:19:45.560Z,16.46
2017-08-15T01:20:56.026Z,16.42
2017-08-15T01:22:06.193Z,16.38
2017-08-15T01:23:16.956Z,16.42
2017-08-15T01:24:27.411Z,16.42
2017-08-15T01:25:38.326Z,16.38
2017-08-15T01:26:48.869Z,16.47
2017-08-15T01:27:59.336Z,16.36
2017-08-15T01:29:10.040Z,16.35
2017-08-15T01:30:20.513Z,16.32
2017-08-15T01:31:30.973Z,16.36
2017-08-15T01:32:41.331Z,16.32
2017-08-15T01:33:51.785Z,16.34
2017-08-15T01:35:02.533Z,16.29
2017-08-15T01:36:13.664Z,16.32
2017-08-15T01:37:24.173Z,16.24
2017-08-15T01:38:34.316Z,16.28
2017-08-15T01:39:44.900Z,16.28
2017-08-15T01:40:55.658Z,16.29
2017-08-15T01:42:06.133Z,16.28
2017-08-15T01:43:16.616Z,16.21
2017-08-15T01:44:27.095Z,16.16
2017-08-15T01:45:37.541Z,16.14
2017-08-15T01:46:48.354Z,16.1
2017-08-15T01:47:58.483Z,16.06
2017-08-15T01:49:09.018Z,16.11
2017-08-15T01:50:18.870Z,16.09
2017-08-15T01:51:28.862Z,15.96
2017-08-15T01:52:39.568Z,16.04
2017-08-15T01:53:50.070Z,15.94
2017-08-15T01:55:00.570Z,15.95
2017-08-15T01:56:11.038Z,15.98
2017-08-15T01:57:21.497Z,15.96
2017-08-15T01:58:32.334Z,15.89
2017-08-15T01:59:42.895Z,15.96
2017-08-15T02:00:53.369Z,15.98
2017-08-15T02:02:03.852Z,15.98
2017-08-15T02:03:14.324Z,16.01
2017-08-15T02:04:25.026Z,15.96
2017-08-15T02:05:35.609Z,15.92
2017-08-15T02:06:46.057Z,15.94
2017-08-15T02:07:56.542Z,15.8
2017-08-15T02:09:06.988Z,15.91
2017-08-15T02:10:17.776Z,15.87
2017-08-15T02:11:27.934Z,15.94
2017-08-15T02:12:38.492Z,15.92
2017-08-15T02:13:48.988Z,15.8
2017-08-15T02:14:59.563Z,15.82
2017-08-15T02:16:10.431Z,15.82
2017-08-15T02:17:20.904Z,15.79
2017-08-15T02:18:31.348Z,15.79
2017-08-15T02:19:41.837Z,15.72
2017-08-15T02:20:52.333Z,15.73
2017-08-15T02:22:03.043Z,15.87
2017-08-15T02:23:13.502Z,15.72
2017-08-15T02:24:24.004Z,15.75
2017-08-15T02:25:34.745Z,15.75
2017-08-15T02:26:45.221Z,15.8
2017-08-15T02:27:55.739Z,15.75
2017-08-15T02:29:06.214Z,15.73
2017-08-15T02:30:16.880Z,15.75
2017-08-15T02:31:26.634Z,15.75
2017-08-15T02:32:37.094Z,15.7
2017-08-15T02:33:47.833Z,15.68
2017-08-15T02:34:58.305Z,15.75
2017-08-15T02:36:08.332Z,15.73
2017-08-15T02:37:18.817Z,15.72
2017-08-15T02:38:29.334Z,15.69
2017-08-15T02:39:39.417Z,15.61
2017-08-15T02:40:49.421Z,15.7
2017-08-15T02:41:59.866Z,15.72
2017-08-15T02:43:10.386Z,15.76
2017-08-15T02:44:20.867Z,15.72
2017-08-15T02:45:31.293Z,15.72
2017-08-15T02:46:41.772Z,15.68
2017-08-15T02:47:52.265Z,15.63
2017-08-15T02:49:03.754Z,15.66
2017-08-15T02:50:14.336Z,15.69
2017-08-15T02:51:25.281Z,15.54
2017-08-15T02:52:35.730Z,15.58
2017-08-15T02:53:46.213Z,15.72
2017-08-15T02:54:56.364Z,15.58
2017-08-15T02:56:06.819Z,15.69
2017-08-15T02:57:17.521Z,15.66
2017-08-15T02:58:27.980Z,15.63
2017-08-15T02:59:38.475Z,15.72
2017-08-15T03:00:48.966Z,15.64
2017-08-15T03:01:59.425Z,15.68
2017-08-15T03:03:10.143Z,15.61
2017-08-15T03:04:20.324Z,15.68
2017-08-15T03:05:30.775Z,15.68
2017-08-15T03:06:41.258Z,15.57
2017-08-15T03:07:51.691Z,15.66
2017-08-15T03:09:02.636Z,15.58
2017-08-15T03:10:13.080Z,15.64
2017-08-15T03:11:23.650Z,15.63
2017-08-15T03:12:34.113Z,15.68
2017-08-15T03:13:44.680Z,15.73
2017-08-15T03:14:55.403Z,15.69
2017-08-15T03:16:05.867Z,15.76
2017-08-15T03:17:16.603Z,15.8
2017-08-15T03:18:28.050Z,15.73
2017-08-15T03:19:38.293Z,15.73
2017-08-15T03:20:49.002Z,15.69
2017-08-15T03:21:59.543Z,15.69
2017-08-15T03:23:09.742Z,15.76
2017-08-15T03:24:19.893Z,15.7
2017-08-15T03:25:30.428Z,15.66
2017-08-15T03:26:41.154Z,15.72
2017-08-15T03:27:51.358Z,15.73
2017-08-15T03:29:01.874Z,15.69
2017-08-15T03:30:12.374Z,15.7
2017-08-15T03:31:22.882Z,15.69
2017-08-15T03:32:33.279Z,15.68
2017-08-15T03:33:43.762Z,15.68
2017-08-15T03:34:54.209Z,15.69
2017-08-15T03:36:04.754Z,15.6
2017-08-15T03:37:15.334Z,15.58
2017-08-15T03:38:26.302Z,15.64
2017-08-15T03:39:36.767Z,15.61
2017-08-15T03:40:47.236Z,15.55
2017-08-15T03:41:57.668Z,15.64
2017-08-15T03:43:08.160Z,15.54
2017-08-15T03:44:18.926Z,15.6
2017-08-15T03:45:29.372Z,15.61
2017-08-15T03:46:39.826Z,15.7
2017-08-15T03:47:49.868Z,15.6
2017-08-15T03:49:00.317Z,15.61
2017-08-15T03:50:11.108Z,15.58
2017-08-15T03:51:21.573Z,15.57
2017-08-15T03:52:31.963Z,15.66
2017-08-15T03:53:42.179Z,15.54
2017-08-15T03:54:52.657Z,15.63
2017-08-15T03:56:02.766Z,15.61
2017-08-15T03:57:13.232Z,15.61
2017-08-15T03:58:23.715Z,15.69
2017-08-15T03:59:33.854Z,15.7
2017-08-15T04:00:44.314Z,15.57
2017-08-15T04:01:55.031Z,15.64
2017-08-15T04:03:05.510Z,15.68
2017-08-15T04:04:15.532Z,15.55
2017-08-15T04:05:26.006Z,15.68
2017-08-15T04:06:35.829Z,15.68
2017-08-15T04:07:46.811Z,15.69
2017-08-15T04:08:57.255Z,15.7
2017-08-15T04:10:07.382Z,15.68
2017-08-15T04:11:17.209Z,15.68
2017-08-15T04:12:27.668Z,15.66
2017-08-15T04:13:38.493Z,15.69
2017-08-15T04:14:48.969Z,15.73
2017-08-15T04:15:59.534Z,15.73
2017-08-15T04:17:09.990Z,15.76
2017-08-15T04:18:20.517Z,15.84
2017-08-15T04:19:31.230Z,15.72
2017-08-15T04:20:41.382Z,15.78
2017-08-15T04:21:51.841Z,15.76
2017-08-15T04:23:02.349Z,15.79
2017-08-15T04:24:12.857Z,15.79
2017-08-15T04:25:23.565Z,15.82
2017-08-15T04:26:34.022Z,15.8
2017-08-15T04:27:44.189Z,15.84
2017-08-15T04:28:54.679Z,15.8
2017-08-15T04:30:05.150Z,15.87
2017-08-15T04:31:15.565Z,15.82
2017-08-15T04:32:26.021Z,15.89
2017-08-15T04:33:36.643Z,15.82
2017-08-15T04:34:47.403Z,15.78
2017-08-15T04:35:57.886Z,15.82
2017-08-15T04:37:08.694Z,15.84
2017-08-15T04:38:19.138Z,15.79
2017-08-15T04:39:29.579Z,15.79
2017-08-15T04:40:40.052Z,15.7
2017-08-15T04:41:50.655Z,15.75
2017-08-15T04:43:02.347Z,15.73
2017-08-15T04:44:12.845Z,15.76
2017-08-15T04:45:23.309Z,15.78
2017-08-15T04:46:33.771Z,15.79
2017-08-15T04:47:44.360Z,15.84
2017-08-15T04:48:54.830Z,15.79
2017-08-15T04:50:05.121Z,15.89
2017-08-15T04:51:15.585Z,15.87
2017-08-15T04:52:26.129Z,15.87
2017-08-15T04:53:36.662Z,15.87
2017-08-15T04:54:47.391Z,15.89
2017-08-15T04:55:57.852Z,15.8
2017-08-15T04:57:08.292Z,15.87
2017-08-15T04:58:18.847Z,15.84
2017-08-15T04:59:29.439Z,15.8
2017-08-15T05:00:40.151Z,15.82
2017-08-15T05:01:50.686Z,15.88
2017-08-15T05:03:01.182Z,15.8
2017-08-15T05:04:11.328Z,15.87
2017-08-15T05:05:21.782Z,15.84
2017-08-15T05:06:32.607Z,15.78
2017-08-15T05:07:43.068Z,15.82
2017-08-15T05:08:53.587Z,15.87
2017-08-15T05:10:04.032Z,15.91
2017-08-15T05:11:14.627Z,15.82
2017-08-15T05:12:25.883Z,15.87
2017-08-15T05:13:36.349Z,15.94
2017-08-15T05:14:46.827Z,15.95
2017-08-15T05:15:57.308Z,15.8
2017-08-15T05:17:07.790Z,15.92
2017-08-15T05:18:18.710Z,15.79
2017-08-15T05:19:29.160Z,15.89
2017-08-15T05:20:39.611Z,15.96
2017-08-15T05:21:49.792Z,15.95
2017-08-15T05:22:59.949Z,15.92
2017-08-15T05:24:10.689Z,15.99
2017-08-15T05:25:21.209Z,15.98
2017-08-15T05:26:31.658Z,15.98
2017-08-15T05:27:42.128Z,16.01
2017-08-15T05:28:52.636Z,15.96
2017-08-15T05:30:03.380Z,16.02
2017-08-15T05:31:13.551Z,16.09
2017-08-15T05:32:24.027Z,15.96
2017-08-15T05:33:34.502Z,16.06
2017-08-15T05:34:44.738Z,16.02
2017-08-15T05:35:55.505Z,15.99
2017-08-15T05:37:06.038Z,16.09
2017-08-15T05:38:16.561Z,16.07
2017-08-15T05:39:27.046Z,16.07
2017-08-15T05:40:37.533Z,16.14
2017-08-15T05:41:48.248Z,16.16
2017-08-15T05:42:58.431Z,16.13
2017-08-15T05:44:08.912Z,16.14
2017-08-15T05:45:19.072Z,16.16
2017-08-15T05:46:29.416Z,16.17
2017-08-15T05:47:39.828Z,16.24
2017-08-15T05:48:50.306Z,16.29
2017-08-15T05:50:00.766Z,16.32
2017-08-15T05:51:11.245Z,16.32
2017-08-15T05:52:21.728Z,16.36
2017-08-15T05:53:32.479Z,16.44
2017-08-15T05:54:43.017Z,16.46
2017-08-15T05:55:53.486Z,16.5
2017-08-15T05:57:04.080Z,16.62
2017-08-15T05:58:14.577Z,16.66
2017-08-15T05:59:24.958Z,16.62
2017-08-15T06:00:35.428Z,16.68
2017-08-15T06:01:45.919Z,16.57
2017-08-15T06:02:56.095Z,16.69
2017-08-15T06:04:06.270Z,16.65
2017-08-15T06:05:17.014Z,16.65
2017-08-15T06:06:27.484Z,16.56
2017-08-15T06:07:38.075Z,16.62
2017-08-15T06:08:48.773Z,16.66
2017-08-15T06:09:59.345Z,16.66
2017-08-15T06:11:10.055Z,16.59
2017-08-15T06:12:20.524Z,16.64
2017-08-15T06:13:30.974Z,16.68
2017-08-15T06:14:41.145Z,16.69
2017-08-15T06:15:51.846Z,16.66
2017-08-15T06:17:02.575Z,16.62
2017-08-15T06:18:13.045Z,16.69
2017-08-15T06:19:22.911Z,16.68
2017-08-15T06:20:33.087Z,16.72
2017-08-15T06:21:43.591Z,16.72
2017-08-15T06:22:54.304Z,16.75
2017-08-15T06:24:04.775Z,16.8
2017-08-15T06:25:14.793Z,16.8
2017-08-15T06:26:25.364Z,16.82
2017-08-15T06:27:35.818Z,16.87
2017-08-15T06:28:46.569Z,16.98
2017-08-15T06:29:57.048Z,16.93
2017-08-15T06:31:07.565Z,16.93
2017-08-15T06:32:18.059Z,16.98
2017-08-15T06:33:28.212Z,16.96
2017-08-15T06:34:38.462Z,17.01
2017-08-15T06:35:48.921Z,16.96
2017-08-15T06:36:59.137Z,17.01
2017-08-15T06:38:09.631Z,17.04
2017-08-15T06:39:20.089Z,17.04
2017-08-15T06:40:30.872Z,17.08
2017-08-15T06:41:41.345Z,17.08
2017-08-15T06:42:51.827Z,17.11
2017-08-15T06:44:02.297Z,17.17
2017-08-15T06:45:12.769Z,17.19
2017-08-15T06:46:23.471Z,17.28
2017-08-15T06:47:33.950Z,17.27
2017-08-15T06:48:44.430Z,17.39
2017-08-15T06:50:26.729Z,17.47
2017-08-15T06:51:37.158Z,17.49
2017-08-15T06:52:47.317Z,17.5
2017-08-15T06:53:57.804Z,17.5
2017-08-15T06:55:07.944Z,17.61
2017-08-15T06:56:17.988Z,17.55
2017-08-15T06:57:28.702Z,17.61
2017-08-15T06:58:39.257Z,17.79
2017-08-15T06:59:49.708Z,17.73
2017-08-15T07:01:00.185Z,17.76
2017-08-15T07:02:10.636Z,17.87
2017-08-15T07:03:21.335Z,17.86
2017-08-15T07:04:31.801Z,17.94
2017-08-15T07:05:42.502Z,17.97
2017-08-15T07:06:52.991Z,17.97
2017-08-15T07:08:03.544Z,17.94
2017-08-15T07:09:14.991Z,17.94
2017-08-15T07:10:25.540Z,18
2017-08-15T07:11:36.020Z,18.01
2017-08-15T07:12:46.178Z,18.09
2017-08-15T07:13:56.650Z,18.12
2017-08-15T07:15:07.421Z,18.09
2017-08-15T07:16:17.893Z,18.17
2017-08-15T07:17:28.034Z,18.23
2017-08-15T07:18:38.558Z,18.22
2017-08-15T07:19:48.725Z,18.28
2017-08-15T07:20:58.839Z,18.31
2017-08-15T07:22:09.298Z,18.34
2017-08-15T07:23:19.755Z,18.41
2017-08-15T07:24:30.207Z,18.42
2017-08-15T07:25:40.892Z,18.5
2017-08-15T07:26:51.689Z,18.57
2017-08-15T07:28:02.164Z,18.56
2017-08-15T07:29:12.353Z,18.62
2017-08-15T07:30:23.090Z,18.57
2017-08-15T07:31:33.120Z,18.63
2017-08-15T07:32:43.409Z,18.67
2017-08-15T07:33:53.885Z,18.69
2017-08-15T07:35:04.358Z,18.69
2017-08-15T07:36:14.164Z,18.62
2017-08-15T07:37:24.648Z,18.76
2017-08-15T07:38:36.027Z,18.79
2017-08-15T07:39:46.081Z,18.84
2017-08-15T07:40:56.532Z,18.86
2017-08-15T07:42:06.701Z,18.93
2017-08-15T07:43:17.025Z,19.02
2017-08-15T07:44:27.121Z,19.02
2017-08-15T07:45:37.586Z,19.16
2017-08-15T07:46:47.744Z,19.13
2017-08-15T07:47:57.918Z,19.23
2017-08-15T07:49:08.628Z,19.3
2017-08-15T07:50:19.350Z,19.25
2017-08-15T07:51:29.802Z,19.28
2017-08-15T07:52:40.379Z,19.28
2017-08-15T07:53:50.851Z,19.31
2017-08-15T07:55:01.319Z,19.42
2017-08-15T07:56:11.471Z,19.49
2017-08-15T07:57:21.975Z,19.56
2017-08-15T07:58:32.508Z,19.58
2017-08-15T07:59:42.989Z,19.85
2017-08-15T08:00:53.012Z,19.82
2017-08-15T08:02:03.423Z,19.93
2017-08-15T08:03:13.923Z,19.98
2017-08-15T08:04:24.377Z,19.92
2017-08-15T08:05:34.848Z,20.17
2017-08-15T08:06:45.341Z,20.34
2017-08-15T08:07:55.764Z,20.38
2017-08-15T08:09:05.896Z,20.46
2017-08-15T08:10:16.401Z,20.63
2017-08-15T08:11:26.877Z,20.75
2017-08-15T08:12:37.500Z,20.85
2017-08-15T08:13:48.304Z,20.97
2017-08-15T08:14:58.816Z,21
2017-08-15T08:16:09.227Z,21.06
2017-08-15T08:17:19.710Z,21.09
2017-08-15T08:18:30.199Z,21.23
2017-08-15T08:19:40.894Z,21.27
2017-08-15T08:20:51.425Z,21.4
2017-08-15T08:22:01.888Z,21.57
2017-08-15T08:23:12.042Z,21.78
2017-08-15T08:24:22.485Z,21.94
2017-08-15T08:25:33.302Z,22.11
2017-08-15T08:26:43.779Z,22.42
2017-08-15T08:27:54.262Z,23.02
2017-08-15T08:29:04.724Z,23.75
2017-08-15T08:30:15.412Z,24.47
2017-08-15T08:31:25.829Z,25.12
2017-08-15T08:32:36.292Z,25.5
2017-08-15T08:33:46.761Z,26.07
2017-08-15T08:34:57.224Z,26.55
2017-08-15T08:36:07.737Z,26.99
2017-08-15T08:37:18.495Z,27.41
2017-08-15T08:38:28.678Z,27.7
2017-08-15T08:39:38.869Z,28.2
2017-08-15T08:40:49.321Z,28.5
2017-08-15T08:41:59.801Z,28.88
2017-08-15T08:43:10.577Z,29.17
2017-08-15T08:44:21.304Z,29.44
2017-08-15T08:45:31.801Z,29.57
2017-08-15T08:46:42.313Z,29.8
2017-08-15T08:47:52.830Z,29.87
2017-08-15T08:49:03.231Z,29.99
2017-08-15T08:50:13.267Z,30.27
2017-08-15T08:51:23.757Z,30.26
2017-08-15T08:52:34.215Z,30.42
2017-08-15T08:53:44.686Z,30.48
2017-08-15T08:54:55.452Z,30.61
2017-08-15T08:56:06.007Z,30.74
2017-08-15T08:57:16.202Z,30.88
2017-08-15T08:58:26.423Z,30.85
2017-08-15T08:59:36.963Z,30.78
2017-08-15T09:00:47.776Z,30.91
2017-08-15T09:01:59.235Z,31.07
2017-08-15T09:03:09.705Z,31.1
2017-08-15T09:04:20.188Z,31.2
2017-08-15T09:05:30.483Z,31.19
2017-08-15T09:06:41.287Z,31.23
2017-08-15T09:07:51.765Z,31.25
2017-08-15T09:09:01.954Z,31.22
2017-08-15T09:10:12.441Z,31.27
2017-08-15T09:11:22.922Z,31.03
2017-08-15T09:12:33.383Z,31.04
2017-08-15T09:13:43.875Z,31.09
2017-08-15T09:14:54.498Z,31.07
2017-08-15T09:16:04.665Z,31
2017-08-15T09:17:15.299Z,31.19
2017-08-15T09:18:25.709Z,31.34
2017-08-15T09:19:36.456Z,31.38
2017-08-15T09:20:47.074Z,31.47
2017-08-15T09:21:57.604Z,31.44
2017-08-15T09:23:08.078Z,31.58
2017-08-15T09:24:18.823Z,31.53
2017-08-15T09:25:29.312Z,31.58
2017-08-15T09:26:39.810Z,31.55
2017-08-15T09:27:49.971Z,31.44
2017-08-15T09:29:01.664Z,31.42
2017-08-15T09:30:12.094Z,31.38
2017-08-15T09:31:22.587Z,31.28
2017-08-15T09:32:33.092Z,31.42
2017-08-15T09:33:43.802Z,31.57
2017-08-15T09:34:54.071Z,31.8
2017-08-15T09:36:04.794Z,31.98
2017-08-15T09:37:15.278Z,32.13
2017-08-15T09:38:25.504Z,32.16
2017-08-15T09:39:36.000Z,32.07
2017-08-15T09:40:46.479Z,32.11
2017-08-15T09:41:56.945Z,32.17
2017-08-15T09:43:07.206Z,32.31
2017-08-15T09:44:17.395Z,32.43
2017-08-15T09:45:27.885Z,32.59
2017-08-15T09:46:38.418Z,32.66
2017-08-15T09:47:49.269Z,32.84
2017-08-15T09:48:59.785Z,32.84
2017-08-15T09:50:10.265Z,32.63
2017-08-15T09:51:20.858Z,32.28
2017-08-15T09:52:31.369Z,31.65
2017-08-15T09:53:42.095Z,31.04
2017-08-15T09:54:52.592Z,30.59
2017-08-15T09:56:03.166Z,30.6
2017-08-15T09:57:13.658Z,30.69
2017-08-15T09:58:24.378Z,30.74
2017-08-15T09:59:35.338Z,30.79
2017-08-15T10:00:46.092Z,30.83
2017-08-15T10:01:56.590Z,30.85
2017-08-15T10:03:06.627Z,30.75
2017-08-15T10:04:17.422Z,30.78
2017-08-15T10:05:28.141Z,30.78
2017-08-15T10:06:38.186Z,30.64
2017-08-15T10:07:48.673Z,30.75
2017-08-15T10:08:59.831Z,30.9
2017-08-15T10:10:10.329Z,31.12
2017-08-15T10:11:21.141Z,31.1
2017-08-15T10:12:32.643Z,31.12
2017-08-15T10:13:42.712Z,31.12
2017-08-15T10:14:58.642Z,30.97
2017-08-15T10:16:08.853Z,30.91
2017-08-15T10:17:19.604Z,30.93
2017-08-15T10:18:29.781Z,30.91
2017-08-15T10:19:39.649Z,31.01
2017-08-15T10:20:50.171Z,30.98
2017-08-15T10:22:00.562Z,31.07
2017-08-15T10:23:10.857Z,30.96
2017-08-15T10:24:21.531Z,30.88
2017-08-15T10:25:31.276Z,30.81
2017-08-15T10:26:42.756Z,30.76
2017-08-15T10:27:53.476Z,30.63
2017-08-15T10:29:04.217Z,30.63
2017-08-15T10:30:14.881Z,30.64
2017-08-15T10:31:25.355Z,30.64
2017-08-15T10:32:35.550Z,30.74
2017-08-15T10:33:45.709Z,30.74
2017-08-15T10:34:56.444Z,30.96
2017-08-15T10:36:06.951Z,31.07
2017-08-15T10:37:17.478Z,31.07
2017-08-15T10:38:27.999Z,30.86
2017-08-15T10:39:38.456Z,30.96
2017-08-15T10:40:49.435Z,30.85
2017-08-15T10:41:59.957Z,30.76
2017-08-15T10:43:10.615Z,30.76
2017-08-15T10:44:21.189Z,30.83
2017-08-15T10:45:31.818Z,30.91
2017-08-15T10:46:42.567Z,31.03
2017-08-15T10:47:53.148Z,31.16
2017-08-15T10:49:03.680Z,31.22
2017-08-15T10:50:14.164Z,31.2
2017-08-15T10:51:24.638Z,31.31
2017-08-15T10:52:35.441Z,31.35
2017-08-15T10:53:45.665Z,31.32
2017-08-15T10:54:56.151Z,31.51
2017-08-15T10:56:06.395Z,31.69
2017-08-15T10:57:16.987Z,31.73
2017-08-15T10:58:27.723Z,31.72
2017-08-15T10:59:37.898Z,31.79
2017-08-15T11:00:48.378Z,31.65
2017-08-15T11:01:58.864Z,31.34
2017-08-15T11:03:09.351Z,31.13
2017-08-15T11:04:20.144Z,31.18
2017-08-15T11:05:30.645Z,31.22
2017-08-15T11:06:40.850Z,31.05
2017-08-15T11:07:51.404Z,31.1
2017-08-15T11:09:01.891Z,30.94
2017-08-15T11:10:12.675Z,31.07
2017-08-15T11:11:23.388Z,30.83
2017-08-15T11:12:33.250Z,30.66
2017-08-15T11:13:43.789Z,30.63
2017-08-15T11:14:54.268Z,30.59
2017-08-15T11:16:05.030Z,30.7
2017-08-15T11:17:15.555Z,30.67
2017-08-15T11:18:26.351Z,30.83
2017-08-15T11:19:36.862Z,30.91
2017-08-15T11:20:47.369Z,31
2017-08-15T11:21:58.135Z,30.97
2017-08-15T11:23:08.705Z,31.03
2017-08-15T11:24:19.175Z,31.07
2017-08-15T11:25:29.651Z,31.07
2017-08-15T11:26:40.281Z,31.09
2017-08-15T11:27:51.089Z,31.13
2017-08-15T11:29:01.585Z,31.1
2017-08-15T11:30:11.842Z,30.85
2017-08-15T11:31:22.330Z,30.82
2017-08-15T11:32:32.857Z,30.86
2017-08-15T11:33:43.583Z,31.07
2017-08-15T11:34:54.126Z,31.4
2017-08-15T11:36:04.330Z,31.5
2017-08-15T11:37:14.836Z,31.68
2017-08-15T11:38:25.341Z,31.8
2017-08-15T11:39:36.088Z,31.88
2017-08-15T11:40:46.577Z,31.98
2017-08-15T11:41:57.072Z,32.03
2017-08-15T11:43:07.608Z,32.09
2017-08-15T11:44:18.101Z,32.02
2017-08-15T11:45:28.879Z,32.02
2017-08-15T11:46:39.434Z,31.97
2017-08-15T11:47:49.911Z,31.94
2017-08-15T11:49:00.397Z,31.84
2017-08-15T11:50:10.899Z,31.8
2017-08-15T11:51:21.350Z,31.57
2017-08-15T11:52:32.088Z,31.13
2017-08-15T11:53:42.562Z,30.75
2017-08-15T11:54:54.032Z,30.6
2017-08-15T11:56:04.588Z,30.61
2017-08-15T11:57:15.295Z,30.38
2017-08-15T11:58:25.810Z,30.22
2017-08-15T11:59:36.298Z,30.03
2017-08-15T12:00:46.798Z,29.91
2017-08-15T12:01:57.303Z,29.89
2017-08-15T12:03:08.017Z,30.02
2017-08-15T12:04:18.490Z,30.08
2017-08-15T12:05:28.527Z,30.29
2017-08-15T12:06:39.131Z,30.53
2017-08-15T12:07:49.285Z,30.53
2017-08-15T12:09:00.051Z,30.6
2017-08-15T12:10:10.538Z,30.61
2017-08-15T12:11:21.109Z,30.39
2017-08-15T12:12:31.361Z,30.3
2017-08-15T12:13:41.563Z,29.94
2017-08-15T12:14:52.367Z,29.8
2017-08-15T12:16:02.203Z,29.7
2017-08-15T12:17:12.683Z,29.72
2017-08-15T12:18:22.116Z,29.57
2017-08-15T12:19:32.603Z,29.53
2017-08-15T12:20:43.024Z,29.55
2017-08-15T12:21:53.490Z,29.58
2017-08-15T12:23:03.686Z,29.31
2017-08-15T12:24:14.201Z,29.29
2017-08-15T12:25:24.730Z,29.29
2017-08-15T12:26:35.584Z,29.33
2017-08-15T12:27:46.108Z,29.11
2017-08-15T12:28:56.417Z,29.03
2017-08-15T12:30:07.018Z,28.99
2017-08-15T12:31:17.784Z,28.98
2017-08-15T12:32:28.830Z,29.01
2017-08-15T12:33:39.333Z,29.1
2017-08-15T12:34:49.806Z,29.01
2017-08-15T12:36:00.323Z,28.96
2017-08-15T12:37:10.814Z,28.96
2017-08-15T12:38:21.631Z,28.79
2017-08-15T12:39:32.128Z,28.79
2017-08-15T12:40:42.654Z,28.83
2017-08-15T12:41:53.152Z,28.83
2017-08-15T12:43:03.814Z,28.77
2017-08-15T12:44:14.781Z,28.83
2017-08-15T12:45:25.299Z,28.89
2017-08-15T12:46:35.788Z,28.89
2017-08-15T12:47:46.297Z,28.91
2017-08-15T12:48:56.770Z,29.02
2017-08-15T12:50:07.182Z,29.03
2017-08-15T12:51:18.776Z,28.96
2017-08-15T12:52:29.300Z,28.94
2017-08-15T12:53:39.778Z,28.81
2017-08-15T12:54:50.290Z,28.83
2017-08-15T12:56:01.017Z,28.69
2017-08-15T12:57:12.485Z,28.67
2017-08-15T12:58:23.056Z,28.65
2017-08-15T12:59:33.529Z,28.67
2017-08-15T13:00:44.021Z,28.58
2017-08-15T13:01:54.945Z,28.6
2017-08-15T13:03:05.438Z,28.56
2017-08-15T13:04:15.908Z,28.64
2017-08-15T13:05:26.419Z,28.56
2017-08-15T13:06:36.894Z,28.49
2017-08-15T13:07:47.643Z,28.42
2017-08-15T13:08:58.166Z,28.32
2017-08-15T13:10:08.665Z,28.36
2017-08-15T13:11:18.822Z,28.23
2017-08-15T13:12:29.400Z,28.31
2017-08-15T13:13:39.820Z,28.2
2017-08-15T13:14:49.997Z,28.17
2017-08-15T13:16:00.501Z,28.11
2017-08-15T13:17:11.219Z,28.2
2017-08-15T13:18:21.684Z,28.14
2017-08-15T13:19:32.420Z,28.13
2017-08-15T13:20:42.903Z,28.19
2017-08-15T13:21:53.078Z,28.17
2017-08-15T13:23:03.899Z,28.13
2017-08-15T13:24:14.585Z,28.11
2017-08-15T13:25:25.348Z,28.08
2017-08-15T13:26:35.998Z,28.13
2017-08-15T13:27:46.149Z,28.17
2017-08-15T13:28:56.308Z,28.17
2017-08-15T13:30:06.784Z,28.23
2017-08-15T13:31:17.428Z,28.27
2017-08-15T13:32:27.598Z,28.22
2017-08-15T13:33:38.081Z,28.34
2017-08-15T13:34:48.638Z,28.27
2017-08-15T13:36:00.093Z,28.34
2017-08-15T13:37:10.632Z,28.36
2017-08-15T13:38:21.160Z,28.27
2017-08-15T13:39:31.628Z,28.46
2017-08-15T13:40:42.137Z,28.41
2017-08-15T13:41:52.343Z,28.42
2017-08-15T13:43:03.068Z,28.38
2017-08-15T13:44:13.842Z,28.27
2017-08-15T13:45:23.997Z,28.22
2017-08-15T13:46:34.484Z,28.17
2017-08-15T13:47:45.025Z,28
2017-08-15T13:48:55.764Z,28.02
2017-08-15T13:50:06.468Z,27.89
2017-08-15T13:51:16.625Z,27.97
2017-08-15T13:52:27.163Z,27.85
2017-08-15T13:53:37.643Z,27.8
2017-08-15T13:54:48.401Z,27.71
2017-08-15T13:55:58.867Z,27.6
2017-08-15T13:57:09.394Z,27.67
2017-08-15T13:58:19.867Z,27.61
2017-08-15T13:59:29.915Z,27.58
2017-08-15T14:00:40.650Z,27.64
2017-08-15T14:01:51.166Z,27.63
2017-08-15T14:03:01.701Z,27.63
2017-08-15T14:04:11.938Z,27.79
2017-08-15T14:05:22.158Z,28.04
2017-08-15T14:06:32.601Z,28.13
2017-08-15T14:07:43.099Z,28.24
2017-08-15T14:08:53.659Z,28.2
2017-08-15T14:10:04.121Z,28.35
2017-08-15T14:11:14.659Z,28.44
2017-08-15T14:12:25.415Z,28.41
2017-08-15T14:13:35.639Z,28.42
2017-08-15T14:14:45.706Z,28.53
2017-08-15T14:15:56.213Z,28.49
2017-08-15T14:17:06.729Z,28.49
2017-08-15T14:18:17.465Z,28.5
2017-08-15T14:19:27.983Z,28.51
2017-08-15T14:20:38.477Z,28.46
2017-08-15T14:21:48.949Z,28.49
2017-08-15T14:22:59.305Z,28.31
2017-08-15T14:24:09.749Z,28.29
2017-08-15T14:25:20.284Z,28.39
2017-08-15T14:26:30.763Z,28.26
2017-08-15T14:27:41.261Z,28.32
2017-08-15T14:28:51.761Z,28.26
2017-08-15T14:30:02.487Z,28.29
2017-08-15T14:31:13.169Z,28.17
2017-08-15T14:32:23.671Z,28.31
2017-08-15T14:33:34.160Z,28.32
2017-08-15T14:34:44.692Z,28.16
2017-08-15T14:35:55.456Z,28.16
2017-08-15T14:37:05.646Z,28.14
2017-08-15T14:38:16.247Z,28.16
2017-08-15T14:39:26.733Z,28.13
2017-08-15T14:40:37.237Z,28.05
2017-08-15T14:41:47.979Z,28.02
2017-08-15T14:42:58.502Z,28.05
2017-08-15T14:44:08.694Z,27.98
2017-08-15T14:45:18.746Z,27.95
2017-08-15T14:46:29.301Z,27.97
2017-08-15T14:47:40.063Z,27.98
2017-08-15T14:48:50.261Z,28
2017-08-15T14:50:00.754Z,27.89
2017-08-15T14:51:10.811Z,27.9
2017-08-15T14:52:21.299Z,27.9
2017-08-15T14:53:32.034Z,27.9
2017-08-15T14:54:42.250Z,27.86
2017-08-15T14:55:52.724Z,27.85
2017-08-15T14:57:02.890Z,27.86
2017-08-15T14:58:13.450Z,27.8
2017-08-15T14:59:24.195Z,27.67
2017-08-15T15:00:34.734Z,27.67
2017-08-15T15:01:45.217Z,27.63
2017-08-15T15:02:55.782Z,27.58
2017-08-15T15:04:06.309Z,27.57
2017-08-15T15:05:17.049Z,27.46
2017-08-15T15:06:27.546Z,27.43
2017-08-15T15:07:38.097Z,27.42
2017-08-15T15:08:48.583Z,27.41
2017-08-15T15:09:59.120Z,27.39
2017-08-15T15:11:09.848Z,27.43
2017-08-15T15:12:19.589Z,27.28